sensor_id;sensor_type;location;lat;lon;timestamp;pressure;altitude;pressure_sealevel;temperature
34961;BMP280;30789;52.030;7.110;2022-11-15T00:00:33;60481.56;;;-143.35
34961;BMP280;30789;52.030;7.110;2022-11-15T00:02:59;60481.56;;;-143.35
34961;BMP280;30789;52.030;7.110;2022-11-15T00:05:26;60481.56;;;-143.35
34961;BMP280;30789;52.030;7.110;2022-11-15T00:07:52;60481.56;;;-143.35
34961;BMP280;30789;52.030;7.110;2022-11-15T00:10:19;60481.56;;;-143.35
34961;BMP280;30789;52.030;7.110;2022-11-15T00:12:46;60481.56;;;-143.35
34961;BMP280;30789;52.030;7.110;2022-11-15T00:15:13;60481.56;;;-143.35
34961;BMP280;30789;52.030;7.110;2022-11-15T00:17:39;60481.56;;;-143.35
34961;BMP280;30789;52.030;7.110;2022-11-15T00:20:07;60481.56;;;-143.35
34961;BMP280;30789;52.030;7.110;2022-11-15T00:22:34;60481.56;;;-143.35
34961;BMP280;30789;52.030;7.110;2022-11-15T00:25:00;60481.56;;;-143.35
34961;BMP280;30789;52.030;7.110;2022-11-15T00:27:27;60481.56;;;-143.35
34961;BMP280;30789;52.030;7.110;2022-11-15T00:29:55;60481.56;;;-143.35
34961;BMP280;30789;52.030;7.110;2022-11-15T00:32:21;60481.56;;;-143.35
34961;BMP280;30789;52.030;7.110;2022-11-15T00:34:48;60481.56;;;-143.35
34961;BMP280;30789;52.030;7.110;2022-11-15T00:37:14;60481.56;;;-143.35
34961;BMP280;30789;52.030;7.110;2022-11-15T00:39:40;60481.56;;;-143.35
34961;BMP280;30789;52.030;7.110;2022-11-15T00:42:07;60481.56;;;-143.35
34961;BMP280;30789;52.030;7.110;2022-11-15T00:44:33;60481.56;;;-143.35
34961;BMP280;30789;52.030;7.110;2022-11-15T00:47:01;60481.56;;;-143.35
34961;BMP280;30789;52.030;7.110;2022-11-15T00:49:28;60481.56;;;-143.35
34961;BMP280;30789;52.030;7.110;2022-11-15T00:51:54;60481.56;;;-143.35
34961;BMP280;30789;52.030;7.110;2022-11-15T00:54:20;60481.56;;;-143.35
34961;BMP280;30789;52.030;7.110;2022-11-15T00:56:47;60481.56;;;-143.35
34961;BMP280;30789;52.030;7.110;2022-11-15T00:59:13;60481.56;;;-143.35
34961;BMP280;30789;52.030;7.110;2022-11-15T01:01:40;60481.56;;;-143.35
34961;BMP280;30789;52.030;7.110;2022-11-15T01:04:08;60481.56;;;-143.35
34961;BMP280;30789;52.030;7.110;2022-11-15T01:06:34;60481.56;;;-143.35
34961;BMP280;30789;52.030;7.110;2022-11-15T01:09:00;60481.56;;;-143.35
34961;BMP280;30789;52.030;7.110;2022-11-15T01:11:27;60481.56;;;-143.35
34961;BMP280;30789;52.030;7.110;2022-11-15T01:13:54;60481.56;;;-143.35
34961;BMP280;30789;52.030;7.110;2022-11-15T01:16:21;60481.56;;;-143.35
34961;BMP280;30789;52.030;7.110;2022-11-15T01:18:47;60481.56;;;-143.35
34961;BMP280;30789;52.030;7.110;2022-11-15T01:21:17;60481.56;;;-143.35
34961;BMP280;30789;52.030;7.110;2022-11-15T01:23:44;60481.56;;;-143.35
34961;BMP280;30789;52.030;7.110;2022-11-15T01:26:13;60481.56;;;-143.35
34961;BMP280;30789;52.030;7.110;2022-11-15T01:28:40;60481.56;;;-143.35
34961;BMP280;30789;52.030;7.110;2022-11-15T01:31:11;60481.56;;;-143.35
34961;BMP280;30789;52.030;7.110;2022-11-15T01:33:38;60481.56;;;-143.35
34961;BMP280;30789;52.030;7.110;2022-11-15T01:36:06;60481.56;;;-143.35
34961;BMP280;30789;52.030;7.110;2022-11-15T01:38:34;60481.56;;;-143.35
34961;BMP280;30789;52.030;7.110;2022-11-15T01:41:01;60481.56;;;-143.35
34961;BMP280;30789;52.030;7.110;2022-11-15T01:43:33;60481.56;;;-143.35
34961;BMP280;30789;52.030;7.110;2022-11-15T01:46:04;60481.56;;;-143.35
34961;BMP280;30789;52.030;7.110;2022-11-15T01:48:33;60481.56;;;-143.35
34961;BMP280;30789;52.030;7.110;2022-11-15T01:51:03;60481.56;;;-143.35
34961;BMP280;30789;52.030;7.110;2022-11-15T01:53:31;60481.56;;;-143.35
34961;BMP280;30789;52.030;7.110;2022-11-15T01:56:02;60481.56;;;-143.35
34961;BMP280;30789;52.030;7.110;2022-11-15T01:58:30;60481.56;;;-143.35
34961;BMP280;30789;52.030;7.110;2022-11-15T02:00:56;60481.56;;;-143.35
34961;BMP280;30789;52.030;7.110;2022-11-15T02:03:26;60481.56;;;-143.35
34961;BMP280;30789;52.030;7.110;2022-11-15T02:05:56;60481.56;;;-143.35
34961;BMP280;30789;52.030;7.110;2022-11-15T02:08:22;60481.56;;;-143.35
34961;BMP280;30789;52.030;7.110;2022-11-15T02:10:49;60481.56;;;-143.35
34961;BMP280;30789;52.030;7.110;2022-11-15T02:13:17;60481.56;;;-143.35
34961;BMP280;30789;52.030;7.110;2022-11-15T02:15:59;60481.56;;;-143.35
34961;BMP280;30789;52.030;7.110;2022-11-15T02:18:34;60481.56;;;-143.35
34961;BMP280;30789;52.030;7.110;2022-11-15T02:21:12;60481.56;;;-143.35
34961;BMP280;30789;52.030;7.110;2022-11-15T02:23:56;60481.56;;;-143.35
34961;BMP280;30789;52.030;7.110;2022-11-15T02:27:01;60481.56;;;-143.35
34961;BMP280;30789;52.030;7.110;2022-11-15T02:29:49;60481.56;;;-143.35
34961;BMP280;30789;52.030;7.110;2022-11-15T02:32:32;60481.56;;;-143.35
34961;BMP280;30789;52.030;7.110;2022-11-15T02:35:04;60481.56;;;-143.35
34961;BMP280;30789;52.030;7.110;2022-11-15T02:37:39;60481.56;;;-143.35
34961;BMP280;30789;52.030;7.110;2022-11-15T02:40:13;60481.56;;;-143.35
34961;BMP280;30789;52.030;7.110;2022-11-15T02:42:48;60481.56;;;-143.35
34961;BMP280;30789;52.030;7.110;2022-11-15T02:45:37;60481.56;;;-143.35
34961;BMP280;30789;52.030;7.110;2022-11-15T02:48:07;60481.56;;;-143.35
34961;BMP280;30789;52.030;7.110;2022-11-15T02:50:35;60481.56;;;-143.35
34961;BMP280;30789;52.030;7.110;2022-11-15T02:53:01;60481.56;;;-143.35
34961;BMP280;30789;52.030;7.110;2022-11-15T02:55:30;60481.56;;;-143.35
34961;BMP280;30789;52.030;7.110;2022-11-15T02:58:11;60481.56;;;-143.35
34961;BMP280;30789;52.030;7.110;2022-11-15T03:00:47;60481.56;;;-143.35
34961;BMP280;30789;52.030;7.110;2022-11-15T03:03:29;60481.56;;;-143.35
34961;BMP280;30789;52.030;7.110;2022-11-15T03:06:05;60481.56;;;-143.35
34961;BMP280;30789;52.030;7.110;2022-11-15T03:08:42;60481.56;;;-143.35
34961;BMP280;30789;52.030;7.110;2022-11-15T03:11:14;60481.56;;;-143.35
34961;BMP280;30789;52.030;7.110;2022-11-15T03:13:46;60481.56;;;-143.35
34961;BMP280;30789;52.030;7.110;2022-11-15T03:16:18;60481.56;;;-143.35
34961;BMP280;30789;52.030;7.110;2022-11-15T03:18:48;60481.56;;;-143.35
34961;BMP280;30789;52.030;7.110;2022-11-15T03:21:19;60481.56;;;-143.35
34961;BMP280;30789;52.030;7.110;2022-11-15T03:23:47;60481.56;;;-143.35
34961;BMP280;30789;52.030;7.110;2022-11-15T03:26:16;60481.56;;;-143.35
34961;BMP280;30789;52.030;7.110;2022-11-15T03:28:50;60481.56;;;-143.35
34961;BMP280;30789;52.030;7.110;2022-11-15T03:31:19;60481.56;;;-143.35
34961;BMP280;30789;52.030;7.110;2022-11-15T03:34:11;60481.56;;;-143.35
34961;BMP280;30789;52.030;7.110;2022-11-15T03:36:40;60481.56;;;-143.35
34961;BMP280;30789;52.030;7.110;2022-11-15T03:39:08;60481.56;;;-143.35
34961;BMP280;30789;52.030;7.110;2022-11-15T03:41:40;60481.56;;;-143.35
34961;BMP280;30789;52.030;7.110;2022-11-15T03:44:14;60481.56;;;-143.35
34961;BMP280;30789;52.030;7.110;2022-11-15T03:46:46;60481.56;;;-143.35
34961;BMP280;30789;52.030;7.110;2022-11-15T03:49:20;60481.56;;;-143.35
34961;BMP280;30789;52.030;7.110;2022-11-15T03:51:48;60481.56;;;-143.35
34961;BMP280;30789;52.030;7.110;2022-11-15T03:54:15;60481.56;;;-143.35
34961;BMP280;30789;52.030;7.110;2022-11-15T03:56:41;60481.56;;;-143.35
34961;BMP280;30789;52.030;7.110;2022-11-15T03:59:08;60481.56;;;-143.35
34961;BMP280;30789;52.030;7.110;2022-11-15T04:01:34;60481.56;;;-143.35
34961;BMP280;30789;52.030;7.110;2022-11-15T04:04:01;60481.56;;;-143.35
34961;BMP280;30789;52.030;7.110;2022-11-15T04:06:29;60481.56;;;-143.35
34961;BMP280;30789;52.030;7.110;2022-11-15T04:08:55;60481.56;;;-143.35
34961;BMP280;30789;52.030;7.110;2022-11-15T04:11:21;60481.56;;;-143.35
34961;BMP280;30789;52.030;7.110;2022-11-15T04:13:48;60481.56;;;-143.35
34961;BMP280;30789;52.030;7.110;2022-11-15T04:16:14;60481.56;;;-143.35
34961;BMP280;30789;52.030;7.110;2022-11-15T04:18:41;60481.56;;;-143.35
34961;BMP280;30789;52.030;7.110;2022-11-15T04:21:08;60481.56;;;-143.35
34961;BMP280;30789;52.030;7.110;2022-11-15T04:23:53;60481.56;;;-143.35
34961;BMP280;30789;52.030;7.110;2022-11-15T04:26:37;60481.56;;;-143.35
34961;BMP280;30789;52.030;7.110;2022-11-15T04:29:04;60481.56;;;-143.35
34961;BMP280;30789;52.030;7.110;2022-11-15T04:31:48;60481.56;;;-143.35
34961;BMP280;30789;52.030;7.110;2022-11-15T04:34:14;60481.56;;;-143.35
34961;BMP280;30789;52.030;7.110;2022-11-15T04:36:41;60481.56;;;-143.35
34961;BMP280;30789;52.030;7.110;2022-11-15T04:39:26;60481.56;;;-143.35
34961;BMP280;30789;52.030;7.110;2022-11-15T04:41:53;60481.56;;;-143.35
34961;BMP280;30789;52.030;7.110;2022-11-15T04:44:19;60481.56;;;-143.35
34961;BMP280;30789;52.030;7.110;2022-11-15T04:46:45;60481.56;;;-143.35
34961;BMP280;30789;52.030;7.110;2022-11-15T04:49:12;60481.56;;;-143.35
34961;BMP280;30789;52.030;7.110;2022-11-15T04:51:38;60481.56;;;-143.35
34961;BMP280;30789;52.030;7.110;2022-11-15T04:54:05;60481.56;;;-143.35
34961;BMP280;30789;52.030;7.110;2022-11-15T04:56:33;60481.56;;;-143.35
34961;BMP280;30789;52.030;7.110;2022-11-15T04:58:59;60481.56;;;-143.35
34961;BMP280;30789;52.030;7.110;2022-11-15T05:01:26;60481.56;;;-143.35
34961;BMP280;30789;52.030;7.110;2022-11-15T05:03:52;60481.56;;;-143.35
34961;BMP280;30789;52.030;7.110;2022-11-15T05:06:42;60481.56;;;-143.35
34961;BMP280;30789;52.030;7.110;2022-11-15T05:09:08;60481.56;;;-143.35
34961;BMP280;30789;52.030;7.110;2022-11-15T05:11:36;60481.56;;;-143.35
34961;BMP280;30789;52.030;7.110;2022-11-15T05:14:03;60481.56;;;-143.35
34961;BMP280;30789;52.030;7.110;2022-11-15T05:16:29;60481.56;;;-143.35
34961;BMP280;30789;52.030;7.110;2022-11-15T05:18:56;60481.56;;;-143.35
34961;BMP280;30789;52.030;7.110;2022-11-15T05:21:22;60481.56;;;-143.35
34961;BMP280;30789;52.030;7.110;2022-11-15T05:23:49;60481.56;;;-143.35
34961;BMP280;30789;52.030;7.110;2022-11-15T05:26:16;60481.56;;;-143.35
34961;BMP280;30789;52.030;7.110;2022-11-15T05:28:45;60481.56;;;-143.35
34961;BMP280;30789;52.030;7.110;2022-11-15T05:31:12;60481.56;;;-143.35
34961;BMP280;30789;52.030;7.110;2022-11-15T05:33:41;60481.56;;;-143.35
34961;BMP280;30789;52.030;7.110;2022-11-15T05:36:12;60481.56;;;-143.35
34961;BMP280;30789;52.030;7.110;2022-11-15T05:38:39;60481.56;;;-143.35
34961;BMP280;30789;52.030;7.110;2022-11-15T05:41:06;60481.56;;;-143.35
34961;BMP280;30789;52.030;7.110;2022-11-15T05:43:35;60481.56;;;-143.35
34961;BMP280;30789;52.030;7.110;2022-11-15T05:46:04;60481.56;;;-143.35
34961;BMP280;30789;52.030;7.110;2022-11-15T05:48:31;60481.56;;;-143.35
34961;BMP280;30789;52.030;7.110;2022-11-15T05:50:58;60481.56;;;-143.35
34961;BMP280;30789;52.030;7.110;2022-11-15T05:53:25;99910.38;;;10.70
34961;BMP280;30789;52.030;7.110;2022-11-15T05:55:52;99912.31;;;10.65
34961;BMP280;30789;52.030;7.110;2022-11-15T05:58:19;99912.91;;;10.72
34961;BMP280;30789;52.030;7.110;2022-11-15T06:00:46;60481.56;;;-143.35
34961;BMP280;30789;52.030;7.110;2022-11-15T06:03:14;60481.56;;;-143.35
34961;BMP280;30789;52.030;7.110;2022-11-15T06:05:40;60481.56;;;-143.35
34961;BMP280;30789;52.030;7.110;2022-11-15T06:08:07;60481.56;;;-143.35
34961;BMP280;30789;52.030;7.110;2022-11-15T06:10:33;60481.56;;;-143.35
34961;BMP280;30789;52.030;7.110;2022-11-15T06:13:01;60481.56;;;-143.35
34961;BMP280;30789;52.030;7.110;2022-11-15T06:15:28;60481.56;;;-143.35
34961;BMP280;30789;52.030;7.110;2022-11-15T06:17:56;60481.56;;;-143.35
34961;BMP280;30789;52.030;7.110;2022-11-15T06:20:24;60481.56;;;-143.35
34961;BMP280;30789;52.030;7.110;2022-11-15T06:22:56;60481.56;;;-143.35
34961;BMP280;30789;52.030;7.110;2022-11-15T06:25:22;60481.56;;;-143.35
34961;BMP280;30789;52.030;7.110;2022-11-15T06:27:50;99926.25;;;10.61
34961;BMP280;30789;52.030;7.110;2022-11-15T06:30:17;60481.56;;;-143.35
34961;BMP280;30789;52.030;7.110;2022-11-15T06:32:43;60481.56;;;-143.35
34961;BMP280;30789;52.030;7.110;2022-11-15T06:35:10;60481.56;;;-143.35
34961;BMP280;30789;52.030;7.110;2022-11-15T06:37:38;99921.56;;;10.71
34961;BMP280;30789;52.030;7.110;2022-11-15T06:40:06;99932.63;;;10.74
34961;BMP280;30789;52.030;7.110;2022-11-15T06:42:32;60481.56;;;-143.35
34961;BMP280;30789;52.030;7.110;2022-11-15T06:44:59;60481.56;;;-143.35
34961;BMP280;30789;52.030;7.110;2022-11-15T06:47:26;99927.97;;;10.84
34961;BMP280;30789;52.030;7.110;2022-11-15T06:49:52;60481.56;;;-143.35
34961;BMP280;30789;52.030;7.110;2022-11-15T06:52:19;99928.25;;;10.98
34961;BMP280;30789;52.030;7.110;2022-11-15T06:54:48;99932.69;;;10.96
34961;BMP280;30789;52.030;7.110;2022-11-15T06:57:14;60481.56;;;-143.35
34961;BMP280;30789;52.030;7.110;2022-11-15T06:59:41;99933.38;;;10.99
34961;BMP280;30789;52.030;7.110;2022-11-15T07:02:11;99933.16;;;11.06
34961;BMP280;30789;52.030;7.110;2022-11-15T07:04:38;99934.22;;;11.00
34961;BMP280;30789;52.030;7.110;2022-11-15T07:07:04;99943.72;;;10.99
34961;BMP280;30789;52.030;7.110;2022-11-15T07:09:31;99956.56;;;11.03
34961;BMP280;30789;52.030;7.110;2022-11-15T07:11:59;99952.16;;;11.05
34961;BMP280;30789;52.030;7.110;2022-11-15T07:14:25;99960.06;;;11.02
34961;BMP280;30789;52.030;7.110;2022-11-15T07:16:51;60481.56;;;-143.35
34961;BMP280;30789;52.030;7.110;2022-11-15T07:19:18;99950.50;;;11.04
34961;BMP280;30789;52.030;7.110;2022-11-15T07:21:44;99958.84;;;11.10
34961;BMP280;30789;52.030;7.110;2022-11-15T07:24:11;99955.31;;;11.13
34961;BMP280;30789;52.030;7.110;2022-11-15T07:26:38;99957.94;;;11.11
34961;BMP280;30789;52.030;7.110;2022-11-15T07:29:06;60481.56;;;-143.35
34961;BMP280;30789;52.030;7.110;2022-11-15T07:31:32;99962.28;;;11.11
34961;BMP280;30789;52.030;7.110;2022-11-15T07:33:59;99962.22;;;11.12
34961;BMP280;30789;52.030;7.110;2022-11-15T07:36:25;99959.59;;;11.14
34961;BMP280;30789;52.030;7.110;2022-11-15T07:38:52;99961.38;;;11.12
34961;BMP280;30789;52.030;7.110;2022-11-15T07:41:18;99960.38;;;11.16
34961;BMP280;30789;52.030;7.110;2022-11-15T07:43:45;99961.94;;;11.20
34961;BMP280;30789;52.030;7.110;2022-11-15T07:46:13;99957.69;;;11.17
34961;BMP280;30789;52.030;7.110;2022-11-15T07:48:39;99960.84;;;11.25
34961;BMP280;30789;52.030;7.110;2022-11-15T07:51:06;99960.84;;;11.25
34961;BMP280;30789;52.030;7.110;2022-11-15T07:53:32;99956.50;;;11.26
34961;BMP280;30789;52.030;7.110;2022-11-15T07:55:59;99957.13;;;11.32
34961;BMP280;30789;52.030;7.110;2022-11-15T07:58:25;99947.38;;;11.39
34961;BMP280;30789;52.030;7.110;2022-11-15T08:00:52;99949.56;;;11.48
34961;BMP280;30789;52.030;7.110;2022-11-15T08:03:19;99957.28;;;11.50
34961;BMP280;30789;52.030;7.110;2022-11-15T08:05:50;99960.06;;;11.45
34961;BMP280;30789;52.030;7.110;2022-11-15T08:08:17;99949.38;;;11.53
34961;BMP280;30789;52.030;7.110;2022-11-15T08:10:43;99950.97;;;11.57
34961;BMP280;30789;52.030;7.110;2022-11-15T08:13:11;99953.97;;;11.68
34961;BMP280;30789;52.030;7.110;2022-11-15T08:15:38;99955.69;;;11.67
34961;BMP280;30789;52.030;7.110;2022-11-15T08:18:06;99964.31;;;11.68
34961;BMP280;30789;52.030;7.110;2022-11-15T08:20:36;99957.44;;;11.67
34961;BMP280;30789;52.030;7.110;2022-11-15T08:23:04;99953.69;;;11.75
34961;BMP280;30789;52.030;7.110;2022-11-15T08:25:31;99953.47;;;11.80
34961;BMP280;30789;52.030;7.110;2022-11-15T08:28:00;99947.72;;;11.72
34961;BMP280;30789;52.030;7.110;2022-11-15T08:30:27;99953.22;;;11.86
34961;BMP280;30789;52.030;7.110;2022-11-15T08:32:56;99945.00;;;11.97
34961;BMP280;30789;52.030;7.110;2022-11-15T08:35:24;99941.25;;;12.04
34961;BMP280;30789;52.030;7.110;2022-11-15T08:37:53;99942.47;;;12.15
34961;BMP280;30789;52.030;7.110;2022-11-15T08:40:20;99940.59;;;12.19
34961;BMP280;30789;52.030;7.110;2022-11-15T08:42:47;99943.47;;;12.13
34961;BMP280;30789;52.030;7.110;2022-11-15T08:45:14;99946.22;;;12.29
34961;BMP280;30789;52.030;7.110;2022-11-15T08:47:40;99940.25;;;12.27
34961;BMP280;30789;52.030;7.110;2022-11-15T08:50:07;99942.56;;;12.33
34961;BMP280;30789;52.030;7.110;2022-11-15T08:52:34;99940.13;;;12.30
34961;BMP280;30789;52.030;7.110;2022-11-15T08:55:02;99947.75;;;12.33
34961;BMP280;30789;52.030;7.110;2022-11-15T08:57:29;99946.16;;;12.30
34961;BMP280;30789;52.030;7.110;2022-11-15T08:59:56;99940.13;;;12.30
34961;BMP280;30789;52.030;7.110;2022-11-15T09:02:22;99935.16;;;12.25
34961;BMP280;30789;52.030;7.110;2022-11-15T09:04:49;99932.66;;;12.42
34961;BMP280;30789;52.030;7.110;2022-11-15T09:07:16;99936.94;;;12.43
34961;BMP280;30789;52.030;7.110;2022-11-15T09:09:42;99931.53;;;12.48
34961;BMP280;30789;52.030;7.110;2022-11-15T09:12:10;99932.78;;;12.39
34961;BMP280;30789;52.030;7.110;2022-11-15T09:14:37;99935.63;;;12.33
34961;BMP280;30789;52.030;7.110;2022-11-15T09:17:03;99941.34;;;12.21
34961;BMP280;30789;52.030;7.110;2022-11-15T09:19:33;99942.16;;;12.23
34961;BMP280;30789;52.030;7.110;2022-11-15T09:22:00;99937.59;;;12.28
34961;BMP280;30789;52.030;7.110;2022-11-15T09:24:26;99936.69;;;12.29
34961;BMP280;30789;52.030;7.110;2022-11-15T09:26:53;99937.06;;;12.40
34961;BMP280;30789;52.030;7.110;2022-11-15T09:29:20;99931.66;;;12.45
34961;BMP280;30789;52.030;7.110;2022-11-15T09:31:47;99932.50;;;12.45
34961;BMP280;30789;52.030;7.110;2022-11-15T09:34:13;99936.44;;;12.35
34961;BMP280;30789;52.030;7.110;2022-11-15T09:36:40;99939.59;;;12.42
34961;BMP280;30789;52.030;7.110;2022-11-15T09:39:06;99933.78;;;12.37
34961;BMP280;30789;52.030;7.110;2022-11-15T09:42:03;99931.13;;;12.18
34961;BMP280;30789;52.030;7.110;2022-11-15T09:44:47;99941.66;;;11.95
34961;BMP280;30789;52.030;7.110;2022-11-15T09:50:28;99941.09;;;12.27
34961;BMP280;30789;52.030;7.110;2022-11-15T09:52:57;99937.28;;;12.15
34961;BMP280;30789;52.030;7.110;2022-11-15T09:55:33;99939.22;;;12.31
34961;BMP280;30789;52.030;7.110;2022-11-15T09:58:07;99938.31;;;12.32
34961;BMP280;30789;52.030;7.110;2022-11-15T10:00:40;99928.72;;;12.34
34961;BMP280;30789;52.030;7.110;2022-11-15T10:03:11;99927.19;;;12.48
34961;BMP280;30789;52.030;7.110;2022-11-15T10:05:40;99938.72;;;12.62
34961;BMP280;30789;52.030;7.110;2022-11-15T10:08:19;99927.78;;;12.55
34961;BMP280;30789;52.030;7.110;2022-11-15T10:10:52;99931.03;;;12.40
34961;BMP280;30789;52.030;7.110;2022-11-15T10:13:23;99928.06;;;12.68
34961;BMP280;30789;52.030;7.110;2022-11-15T10:15:53;99916.28;;;12.79
34961;BMP280;30789;52.030;7.110;2022-11-15T10:18:26;99909.13;;;12.84
34961;BMP280;30789;52.030;7.110;2022-11-15T10:20:59;99910.25;;;12.97
34961;BMP280;30789;52.030;7.110;2022-11-15T10:23:29;99902.84;;;13.07
34961;BMP280;30789;52.030;7.110;2022-11-15T10:25:59;99905.88;;;12.98
34961;BMP280;30789;52.030;7.110;2022-11-15T10:30:59;99900.16;;;12.91
34961;BMP280;30789;52.030;7.110;2022-11-15T10:33:30;99893.66;;;13.19
34961;BMP280;30789;52.030;7.110;2022-11-15T10:36:16;99891.00;;;13.01
34961;BMP280;30789;52.030;7.110;2022-11-15T10:38:57;99892.28;;;13.48
34961;BMP280;30789;52.030;7.110;2022-11-15T10:41:34;99899.28;;;13.63
34961;BMP280;30789;52.030;7.110;2022-11-15T10:44:12;99891.97;;;13.71
34961;BMP280;30789;52.030;7.110;2022-11-15T10:46:43;99885.28;;;14.00
34961;BMP280;30789;52.030;7.110;2022-11-15T10:49:13;99880.72;;;14.38
34961;BMP280;30789;52.030;7.110;2022-11-15T10:51:42;99879.31;;;14.79
34961;BMP280;30789;52.030;7.110;2022-11-15T10:54:12;99876.78;;;14.78
34961;BMP280;30789;52.030;7.110;2022-11-15T10:56:42;99861.00;;;15.12
34961;BMP280;30789;52.030;7.110;2022-11-15T10:59:16;99858.16;;;14.85
34961;BMP280;30789;52.030;7.110;2022-11-15T11:01:47;99848.25;;;14.92
34961;BMP280;30789;52.030;7.110;2022-11-15T11:04:14;99846.59;;;15.21
34961;BMP280;30789;52.030;7.110;2022-11-15T11:06:47;99853.69;;;15.49
34961;BMP280;30789;52.030;7.110;2022-11-15T11:09:23;99846.59;;;15.66
34961;BMP280;30789;52.030;7.110;2022-11-15T11:11:53;99842.88;;;15.99
34961;BMP280;30789;52.030;7.110;2022-11-15T11:14:22;99853.06;;;16.03
34961;BMP280;30789;52.030;7.110;2022-11-15T11:16:54;99840.81;;;16.18
34961;BMP280;30789;52.030;7.110;2022-11-15T11:19:36;99841.13;;;16.13
34961;BMP280;30789;52.030;7.110;2022-11-15T11:22:11;99841.13;;;16.13
34961;BMP280;30789;52.030;7.110;2022-11-15T11:24:44;99832.69;;;16.65
34961;BMP280;30789;52.030;7.110;2022-11-15T11:27:22;99839.81;;;16.20
34961;BMP280;30789;52.030;7.110;2022-11-15T11:30:14;99821.34;;;16.52
34961;BMP280;30789;52.030;7.110;2022-11-15T11:33:03;99817.44;;;16.86
34961;BMP280;30789;52.030;7.110;2022-11-15T11:35:35;99823.72;;;16.55
34961;BMP280;30789;52.030;7.110;2022-11-15T11:38:23;99819.19;;;16.44
34961;BMP280;30789;52.030;7.110;2022-11-15T11:40:59;99816.06;;;17.07
34961;BMP280;30789;52.030;7.110;2022-11-15T11:43:36;99808.41;;;17.56
34961;BMP280;30789;52.030;7.110;2022-11-15T11:46:16;99804.22;;;17.54
34961;BMP280;30789;52.030;7.110;2022-11-15T11:48:52;99801.00;;;16.57
34961;BMP280;30789;52.030;7.110;2022-11-15T11:51:25;99807.81;;;16.59
34961;BMP280;30789;52.030;7.110;2022-11-15T11:53:56;99805.19;;;17.91
34961;BMP280;30789;52.030;7.110;2022-11-15T11:56:26;99795.09;;;18.95
34961;BMP280;30789;52.030;7.110;2022-11-15T11:58:55;99801.41;;;19.63
34961;BMP280;30789;52.030;7.110;2022-11-15T12:01:25;99795.34;;;20.40
34961;BMP280;30789;52.030;7.110;2022-11-15T12:03:56;99793.03;;;21.01
34961;BMP280;30789;52.030;7.110;2022-11-15T12:06:30;99781.66;;;20.80
34961;BMP280;30789;52.030;7.110;2022-11-15T12:09:01;99779.47;;;20.85
34961;BMP280;30789;52.030;7.110;2022-11-15T12:11:29;99776.97;;;21.36
34961;BMP280;30789;52.030;7.110;2022-11-15T12:14:01;99774.31;;;20.51
34961;BMP280;30789;52.030;7.110;2022-11-15T12:16:31;99780.34;;;19.75
34961;BMP280;30789;52.030;7.110;2022-11-15T12:19:01;99774.34;;;19.62
34961;BMP280;30789;52.030;7.110;2022-11-15T12:21:34;99774.06;;;19.08
34961;BMP280;30789;52.030;7.110;2022-11-15T12:24:04;99775.44;;;19.25
34961;BMP280;30789;52.030;7.110;2022-11-15T12:26:35;99777.66;;;19.53
34961;BMP280;30789;52.030;7.110;2022-11-15T12:29:05;99774.47;;;19.83
34961;BMP280;30789;52.030;7.110;2022-11-15T12:31:38;99774.72;;;20.36
34961;BMP280;30789;52.030;7.110;2022-11-15T12:34:29;99770.53;;;20.33
34961;BMP280;30789;52.030;7.110;2022-11-15T12:36:56;99776.91;;;20.62
34961;BMP280;30789;52.030;7.110;2022-11-15T12:40:03;99769.03;;;20.74
34961;BMP280;30789;52.030;7.110;2022-11-15T12:42:40;99773.50;;;20.29
34961;BMP280;30789;52.030;7.110;2022-11-15T12:45:25;99778.88;;;19.71
34961;BMP280;30789;52.030;7.110;2022-11-15T12:47:52;99763.78;;;20.62
34961;BMP280;30789;52.030;7.110;2022-11-15T12:50:54;99760.47;;;20.60
34961;BMP280;30789;52.030;7.110;2022-11-15T12:53:26;99763.16;;;20.05
34961;BMP280;30789;52.030;7.110;2022-11-15T12:56:09;99756.47;;;19.67
34961;BMP280;30789;52.030;7.110;2022-11-15T12:58:44;99758.13;;;19.57
34961;BMP280;30789;52.030;7.110;2022-11-15T13:04:26;99743.72;;;18.82
34961;BMP280;30789;52.030;7.110;2022-11-15T13:06:56;99745.38;;;18.35
34961;BMP280;30789;52.030;7.110;2022-11-15T13:09:53;99732.53;;;17.70
34961;BMP280;30789;52.030;7.110;2022-11-15T13:12:49;99733.59;;;17.68
34961;BMP280;30789;52.030;7.110;2022-11-15T13:15:36;99722.56;;;17.88
34961;BMP280;30789;52.030;7.110;2022-11-15T13:18:26;99719.53;;;17.69
34961;BMP280;30789;52.030;7.110;2022-11-15T13:20:54;99714.63;;;17.52
34961;BMP280;30789;52.030;7.110;2022-11-15T13:23:22;99708.44;;;17.02
34961;BMP280;30789;52.030;7.110;2022-11-15T13:26:12;99710.22;;;16.89
34961;BMP280;30789;52.030;7.110;2022-11-15T13:28:43;99698.38;;;16.56
34961;BMP280;30789;52.030;7.110;2022-11-15T13:31:29;99692.38;;;16.15
34961;BMP280;30789;52.030;7.110;2022-11-15T13:34:00;99683.63;;;16.16
34961;BMP280;30789;52.030;7.110;2022-11-15T13:36:29;99686.56;;;15.97
34961;BMP280;30789;52.030;7.110;2022-11-15T13:39:01;99676.44;;;15.78
34961;BMP280;30789;52.030;7.110;2022-11-15T13:41:30;99688.88;;;15.31
34961;BMP280;30789;52.030;7.110;2022-11-15T13:43:58;99682.94;;;15.29
34961;BMP280;30789;52.030;7.110;2022-11-15T13:46:26;99676.59;;;15.19
34961;BMP280;30789;52.030;7.110;2022-11-15T13:48:55;99681.97;;;15.01
34961;BMP280;30789;52.030;7.110;2022-11-15T13:51:27;99676.81;;;14.86
34961;BMP280;30789;52.030;7.110;2022-11-15T13:53:58;99671.78;;;14.83
34961;BMP280;30789;52.030;7.110;2022-11-15T13:56:28;99667.03;;;14.75
34961;BMP280;30789;52.030;7.110;2022-11-15T13:58:57;99661.00;;;14.75
34961;BMP280;30789;52.030;7.110;2022-11-15T14:01:31;99666.44;;;14.56
34961;BMP280;30789;52.030;7.110;2022-11-15T14:03:59;99660.88;;;14.46
34961;BMP280;30789;52.030;7.110;2022-11-15T14:06:28;99661.25;;;14.40
34961;BMP280;30789;52.030;7.110;2022-11-15T14:09:14;99660.91;;;14.31
34961;BMP280;30789;52.030;7.110;2022-11-15T14:11:51;99653.09;;;14.31
34961;BMP280;30789;52.030;7.110;2022-11-15T14:14:20;99651.00;;;14.21
34961;BMP280;30789;52.030;7.110;2022-11-15T14:16:49;99650.78;;;14.10
34961;BMP280;30789;52.030;7.110;2022-11-15T14:19:37;99647.44;;;14.08
34961;BMP280;30789;52.030;7.110;2022-11-15T14:22:17;99636.97;;;13.94
34961;BMP280;30789;52.030;7.110;2022-11-15T14:24:46;99643.25;;;13.90